Time;durP1;ratioP1;P1;durP2;ratioP2;P2;SDS_P1;SDS_P2;PMS_P1;PMS_P2;Temp;Humidity;BMP_temperature;BMP_pressure;BME280_temperature;BME280_humidity;BME280_pressure;Samples;Min_cycle;Max_cycle;Signal;HPM_P1;HPM_P2
2024/04/03 00:00:30;;;;;;;9.85;2.22;;;11.20;99.90;;;;;;5032587;28;20017;-81
2024/04/03 00:02:55;;;;;;;7.35;2.63;;;11.20;99.90;;;;;;5034655;28;20028;-81
2024/04/03 00:05:21;;;;;;;8.95;2.63;;;11.20;99.90;;;;;;5032808;28;20351;-81
2024/04/03 00:07:46;;;;;;;8.32;2.50;;;11.20;99.90;;;;;;5033783;28;20171;-81
2024/04/03 00:10:13;;;;;;;10.25;3.00;;;11.20;99.90;;;;;;5033107;28;20021;-81
2024/04/03 00:12:39;;;;;;;6.80;2.63;;;11.20;99.90;;;;;;5032980;28;20032;-81
2024/04/03 00:15:05;;;;;;;10.90;3.25;;;11.10;99.90;;;;;;5032876;28;20032;-81
2024/04/03 00:17:30;;;;;;;8.02;2.70;;;11.10;99.90;;;;;;5033990;28;20385;-82
2024/04/03 00:19:56;;;;;;;9.40;2.30;;;11.20;99.90;;;;;;5034342;28;20104;-81
2024/04/03 00:22:21;;;;;;;10.32;3.08;;;11.10;99.90;;;;;;5034043;28;20080;-80
2024/04/03 00:24:47;;;;;;;9.35;2.80;;;11.10;99.90;;;;;;5032377;28;20021;-81
2024/04/03 00:27:14;;;;;;;9.30;2.78;;;11.10;99.90;;;;;;5032679;28;20025;-81
2024/04/03 00:29:40;;;;;;;9.57;3.38;;;11.10;99.90;;;;;;5034155;28;20093;-80
2024/04/03 00:32:05;;;;;;;8.98;4.05;;;11.10;99.90;;;;;;5033735;28;20426;-80
2024/04/03 00:34:31;;;;;;;8.68;3.90;;;11.10;99.90;;;;;;5033781;28;20025;-80
2024/04/03 00:36:57;;;;;;;8.43;3.80;;;11.00;99.90;;;;;;5033626;28;20486;-80
2024/04/03 00:39:22;;;;;;;6.88;3.47;;;11.00;99.90;;;;;;5033579;28;20030;-81
2024/04/03 00:41:48;;;;;;;7.40;3.42;;;11.10;99.90;;;;;;5032620;28;20026;-81
2024/04/03 00:44:14;;;;;;;6.97;3.28;;;11.00;99.90;;;;;;5034193;28;20415;-81
2024/04/03 00:46:40;;;;;;;13.68;3.65;;;11.00;99.90;;;;;;5032255;28;20061;-80
2024/04/03 00:49:07;;;;;;;11.15;4.75;;;11.00;99.90;;;;;;5033189;28;20056;-80
2024/04/03 00:51:34;;;;;;;8.05;3.58;;;11.00;99.90;;;;;;5033184;28;20038;-81
2024/04/03 00:54:00;;;;;;;7.28;3.58;;;11.00;99.90;;;;;;5032241;28;20119;-81
2024/04/03 00:56:27;;;;;;;8.35;4.72;;;11.10;99.90;;;;;;5032377;28;20057;-80
2024/04/03 00:58:53;;;;;;;7.53;4.13;;;11.00;99.90;;;;;;5032382;28;20112;-80
2024/04/03 01:01:19;;;;;;;11.10;4.63;;;11.00;99.90;;;;;;5031551;28;20113;-80
2024/04/03 01:03:44;;;;;;;8.13;4.00;;;11.00;99.90;;;;;;5031982;28;20481;-81
2024/04/03 01:06:11;;;;;;;9.93;4.00;;;11.00;99.90;;;;;;5032050;28;20036;-80
2024/04/03 01:08:37;;;;;;;12.35;5.57;;;11.00;99.90;;;;;;5031626;28;20075;-80
2024/04/03 01:11:02;;;;;;;7.75;3.65;;;11.00;99.90;;;;;;5033101;28;20465;-80
2024/04/03 01:13:28;;;;;;;10.07;4.38;;;11.00;99.90;;;;;;5031727;28;20032;-80
2024/04/03 01:15:54;;;;;;;8.63;3.67;;;11.00;99.90;;;;;;5031466;28;20026;-80
2024/04/03 01:18:20;;;;;;;7.10;3.25;;;11.00;99.90;;;;;;5032919;28;20119;-79
2024/04/03 01:20:47;;;;;;;8.27;3.13;;;11.00;99.90;;;;;;5031247;28;20033;-80
2024/04/03 01:23:12;;;;;;;7.35;2.83;;;11.00;99.90;;;;;;5031823;28;20026;-80
2024/04/03 01:25:38;;;;;;;5.30;2.13;;;11.00;99.90;;;;;;5031317;28;20018;-80
2024/04/03 01:28:04;;;;;;;7.18;2.70;;;11.00;99.90;;;;;;5032823;28;20104;-80
2024/04/03 01:30:30;;;;;;;5.05;2.15;;;11.00;99.90;;;;;;5032702;28;20462;-79
2024/04/03 01:32:55;;;;;;;5.47;1.98;;;11.00;99.90;;;;;;5032841;28;20030;-80
2024/04/03 01:35:21;;;;;;;4.10;1.80;;;10.90;99.90;;;;;;5032574;28;20048;-79
2024/04/03 01:37:46;;;;;;;4.40;1.73;;;11.00;99.90;;;;;;5034649;28;20030;-79
2024/04/03 01:40:12;;;;;;;4.65;1.50;;;11.00;99.90;;;;;;5033127;28;20072;-80
2024/04/03 01:42:39;;;;;;;4.57;1.73;;;11.00;99.90;;;;;;5032870;28;20037;-80
2024/04/03 01:45:05;;;;;;;4.25;1.50;;;11.00;99.90;;;;;;5031381;28;20083;-80
2024/04/03 01:47:30;;;;;;;3.83;1.83;;;11.00;99.90;;;;;;5032759;28;20033;-80
2024/04/03 01:49:59;;;;;;;5.20;2.00;;;11.00;99.90;;;;;;5033951;28;20208;-80
2024/04/03 01:52:24;;;;;;;5.68;2.25;;;11.00;99.90;;;;;;5033865;28;20155;-80
2024/04/03 01:54:50;;;;;;;4.13;2.22;;;11.00;99.90;;;;;;5032363;28;20124;-80
2024/04/03 01:57:16;;;;;;;5.03;2.78;;;11.00;99.90;;;;;;5032510;28;20061;-80
2024/04/03 01:59:42;;;;;;;7.88;3.03;;;11.00;99.90;;;;;;5031398;28;20033;-80
2024/04/03 02:02:08;;;;;;;5.47;3.72;;;11.00;99.90;;;;;;5032892;28;20801;-80
2024/04/03 02:04:33;;;;;;;9.48;3.90;;;11.00;99.90;;;;;;5032835;28;20070;-81
2024/04/03 02:07:03;;;;;;;8.55;3.70;;;11.10;99.90;;;;;;5030964;28;20022;-79
2024/04/03 02:09:29;;;;;;;10.90;3.55;;;11.00;99.90;;;;;;5032290;28;20030;-80
2024/04/03 02:11:55;;;;;;;8.48;3.50;;;11.00;99.90;;;;;;5032664;28;20033;-80
2024/04/03 02:14:20;;;;;;;8.07;2.70;;;11.00;99.90;;;;;;5030864;28;20376;-79
2024/04/03 02:16:46;;;;;;;6.15;2.58;;;11.00;99.90;;;;;;5032157;28;20105;-80
2024/04/03 02:19:13;;;;;;;6.10;2.70;;;10.90;99.90;;;;;;5032654;28;20025;-79
2024/04/03 02:21:39;;;;;;;3.67;1.73;;;10.90;99.90;;;;;;5032323;28;20084;-79
2024/04/03 02:24:05;;;;;;;8.93;2.35;;;10.90;99.90;;;;;;5034585;28;20063;-79
2024/04/03 02:26:31;;;;;;;7.47;2.95;;;10.90;99.90;;;;;;5036438;28;20021;-79
2024/04/03 02:28:57;;;;;;;5.60;2.50;;;10.90;99.90;;;;;;5035963;28;20022;-79
2024/04/03 02:31:23;;;;;;;5.68;2.15;;;10.90;99.90;;;;;;5034748;28;20083;-79
2024/04/03 02:33:49;;;;;;;6.32;2.70;;;10.90;99.90;;;;;;5035870;28;20030;-80
2024/04/03 02:36:15;;;;;;;6.88;2.20;;;10.90;99.90;;;;;;5036140;28;20033;-80
2024/04/03 02:38:41;;;;;;;5.43;1.85;;;10.90;99.90;;;;;;5035905;28;20029;-79
2024/04/03 02:41:07;;;;;;;6.30;2.15;;;10.90;99.90;;;;;;5035805;28;20140;-79
2024/04/03 02:43:32;;;;;;;5.03;2.05;;;10.90;99.90;;;;;;5034525;28;20065;-79
2024/04/03 02:45:58;;;;;;;4.80;1.83;;;10.90;99.90;;;;;;5035828;28;20030;-79
2024/04/03 02:48:24;;;;;;;7.28;1.98;;;10.90;99.90;;;;;;5036217;28;20025;-79
2024/04/03 02:50:58;;;;;;;7.60;2.30;;;10.90;99.90;;;;;;5034441;28;20091;-79
2024/04/03 02:53:24;;;;;;;7.45;2.38;;;10.90;99.90;;;;;;5035537;28;20052;-79
2024/04/03 02:55:50;;;;;;;3.95;1.40;;;10.90;99.90;;;;;;5034320;28;20561;-79
2024/04/03 02:58:15;;;;;;;5.55;1.92;;;10.90;99.90;;;;;;5035322;28;20021;-79
2024/04/03 03:00:41;;;;;;;5.25;2.00;;;10.90;99.90;;;;;;5035159;28;20109;-79
2024/04/03 03:03:07;;;;;;;4.90;2.03;;;10.90;99.90;;;;;;5035499;28;20147;-80
2024/04/03 03:05:34;;;;;;;5.43;2.00;;;11.00;99.90;;;;;;5033956;28;20104;-80
2024/04/03 03:08:00;;;;;;;6.28;1.80;;;10.90;99.90;;;;;;5033742;28;20022;-79
2024/04/03 03:10:26;;;;;;;5.00;1.65;;;10.90;99.90;;;;;;5035594;28;20533;-80
2024/04/03 03:12:51;;;;;;;8.65;1.48;;;10.90;99.90;;;;;;5033446;28;20025;-80
2024/04/03 03:15:17;;;;;;;5.25;1.55;;;10.90;99.90;;;;;;5035579;28;20473;-80
2024/04/03 03:17:42;;;;;;;6.57;1.70;;;10.90;99.90;;;;;;5034087;28;20014;-80
2024/04/03 03:20:08;;;;;;;9.18;2.05;;;10.90;99.90;;;;;;5034101;28;20026;-80
2024/04/03 03:22:34;;;;;;;5.43;1.95;;;10.90;99.90;;;;;;5034119;28;20040;-80
2024/04/03 03:24:59;;;;;;;5.90;1.75;;;10.90;99.90;;;;;;5035366;28;20036;-80
2024/04/03 03:27:25;;;;;;;6.60;2.25;;;10.90;99.90;;;;;;5034691;28;20025;-80
2024/04/03 03:29:50;;;;;;;4.70;1.77;;;10.90;99.90;;;;;;5035160;28;20390;-80
2024/04/03 03:32:16;;;;;;;9.48;1.95;;;10.90;99.90;;;;;;5033713;28;20114;-80
2024/04/03 03:34:41;;;;;;;5.70;1.60;;;10.90;99.90;;;;;;5033676;28;20478;-80
2024/04/03 03:37:07;;;;;;;4.43;1.63;;;10.90;99.90;;;;;;5035288;28;20071;-80
2024/04/03 03:39:33;;;;;;;5.95;1.73;;;10.90;99.90;;;;;;5035459;28;20026;-80
2024/04/03 03:41:58;;;;;;;5.35;1.98;;;10.90;99.90;;;;;;5034870;28;20033;-81
2024/04/03 03:44:24;;;;;;;9.55;1.73;;;10.90;99.90;;;;;;5035023;28;20021;-81
2024/04/03 03:46:50;;;;;;;8.70;1.92;;;10.90;99.90;;;;;;5035093;28;20385;-81
2024/04/03 03:54:45;;;;;;;3.95;1.58;;;10.90;99.90;;;;;;5034439;28;20036;-80
2024/04/03 03:57:12;;;;;;;7.72;1.50;;;10.90;99.90;;;;;;5033134;28;20017;-80
2024/04/03 03:59:37;;;;;;;6.35;1.35;;;10.90;99.90;;;;;;5049816;28;20032;-80
2024/04/03 04:02:03;;;;;;;3.65;1.27;;;10.90;99.90;;;;;;5034616;28;20037;-80
2024/04/03 04:04:29;;;;;;;5.22;1.48;;;10.90;99.90;;;;;;5034329;28;20104;-81
2024/04/03 04:06:54;;;;;;;5.30;1.63;;;10.90;99.90;;;;;;5036155;28;20025;-81
2024/04/03 04:09:20;;;;;;;5.07;1.60;;;10.90;99.90;;;;;;5035585;28;20037;-81
2024/04/03 04:11:46;;;;;;;7.55;2.55;;;10.90;99.90;;;;;;5033006;28;20032;-81
2024/04/03 04:14:12;;;;;;;6.78;1.55;;;10.90;99.90;;;;;;5033395;28;20402;-81
2024/04/03 04:16:37;;;;;;;4.10;1.50;;;10.90;99.90;;;;;;5034452;28;20496;-80
2024/04/03 04:19:03;;;;;;;5.53;1.23;;;10.90;99.90;;;;;;5034534;28;20156;-81
2024/04/03 04:21:29;;;;;;;5.55;1.48;;;10.80;99.90;;;;;;5034380;28;20495;-82
2024/04/03 04:23:54;;;;;;;3.88;1.60;;;10.90;99.90;;;;;;5032565;28;20029;-81
2024/04/03 04:26:20;;;;;;;4.30;1.15;;;10.90;99.90;;;;;;5034514;28;20057;-81
2024/04/03 04:28:45;;;;;;;7.50;2.03;;;10.90;99.90;;;;;;5034699;28;20032;-81
2024/04/03 04:31:11;;;;;;;6.40;1.30;;;10.90;99.90;;;;;;5034575;28;20030;-80
2024/04/03 04:33:37;;;;;;;6.03;1.42;;;10.90;99.90;;;;;;5034102;28;20029;-81
2024/04/03 04:36:03;;;;;;;9.27;1.65;;;10.90;99.90;;;;;;5034255;28;20100;-81
2024/04/03 04:38:29;;;;;;;7.10;1.90;;;10.90;99.90;;;;;;5034358;28;20116;-81
2024/04/03 04:41:05;;;;;;;3.45;1.25;;;10.90;99.90;;;;;;5033965;28;20029;-80
2024/04/03 04:43:34;;;;;;;6.97;1.47;;;10.90;99.90;;;;;;5033954;28;20492;-80
2024/04/03 04:46:02;;;;;;;7.68;1.58;;;10.90;99.90;;;;;;5033590;28;20036;-82
2024/04/03 04:48:30;;;;;;;9.60;1.55;;;10.90;99.90;;;;;;5033985;28;20053;-79
2024/04/03 04:50:59;;;;;;;5.78;1.17;;;10.90;99.90;;;;;;5032161;28;20501;-80
2024/04/03 04:53:25;;;;;;;5.60;1.50;;;10.90;99.90;;;;;;5033676;28;20030;-80
2024/04/03 04:55:58;;;;;;;6.95;1.70;;;10.90;99.90;;;;;;5032664;28;20156;-80
2024/04/03 04:58:24;;;;;;;4.18;1.50;;;10.90;99.90;;;;;;5033588;28;20079;-81
2024/04/03 05:00:59;;;;;;;7.32;1.52;;;10.90;99.90;;;;;;5033558;28;20022;-80
2024/04/03 05:03:25;;;;;;;5.35;2.35;;;10.90;99.90;;;;;;5017643;28;20056;-80
2024/04/03 05:05:51;;;;;;;4.28;1.50;;;10.90;99.90;;;;;;5027189;28;20029;-80
2024/04/03 05:08:18;;;;;;;7.05;1.70;;;10.80;99.90;;;;;;5034665;28;20033;-80
2024/04/03 05:10:52;;;;;;;6.03;1.85;;;10.80;99.90;;;;;;5032732;28;20025;-81
2024/04/03 05:13:18;;;;;;;5.90;1.60;;;10.80;99.90;;;;;;5033574;28;20436;-80
2024/04/03 05:15:45;;;;;;;5.22;1.70;;;10.80;99.90;;;;;;5035529;28;20366;-81
2024/04/03 05:18:11;;;;;;;4.30;1.10;;;10.90;99.90;;;;;;5033764;28;20032;-81
2024/04/03 05:20:37;;;;;;;3.65;1.10;;;10.80;99.90;;;;;;5033279;28;20053;-81
2024/04/03 05:23:03;;;;;;;6.88;1.52;;;10.80;99.90;;;;;;5033066;28;20064;-80
2024/04/03 05:25:29;;;;;;;9.00;1.87;;;10.90;99.90;;;;;;5033224;28;20418;-80
2024/04/03 05:27:54;;;;;;;4.13;1.13;;;10.90;99.90;;;;;;5031800;28;20108;-80
2024/04/03 05:30:20;;;;;;;6.03;1.80;;;10.90;99.90;;;;;;5031580;28;20029;-81
2024/04/03 05:32:47;;;;;;;5.22;1.52;;;10.90;99.90;;;;;;5026171;28;20274;-81
2024/04/03 05:35:15;;;;;;;4.22;1.25;;;10.90;99.90;;;;;;5020359;28;20038;-81
2024/04/03 05:37:43;;;;;;;7.53;1.70;;;10.90;99.90;;;;;;5031049;28;20029;-80
2024/04/03 05:40:09;;;;;;;4.78;1.02;;;10.90;99.90;;;;;;5032665;28;20155;-81
2024/04/03 05:42:35;;;;;;;8.30;2.08;;;10.90;99.90;;;;;;5031515;28;20490;-80
2024/04/03 05:45:01;;;;;;;5.03;1.33;;;10.90;99.90;;;;;;5029816;28;20029;-80
2024/04/03 05:47:27;;;;;;;4.88;1.50;;;10.90;99.90;;;;;;5042924;28;20033;-81
2024/04/03 05:49:54;;;;;;;6.95;1.63;;;11.00;99.90;;;;;;5039220;28;20041;-79
2024/04/03 05:52:20;;;;;;;8.80;1.65;;;11.00;99.90;;;;;;5028297;28;20109;-80
2024/04/03 05:54:46;;;;;;;7.18;1.45;;;11.00;99.90;;;;;;5042456;28;20029;-80
2024/04/03 05:57:13;;;;;;;5.07;1.35;;;11.00;99.90;;;;;;5012622;28;20101;-80
2024/04/03 05:59:38;;;;;;;6.35;1.33;;;11.00;99.90;;;;;;5024249;28;20461;-80
2024/04/03 06:02:04;;;;;;;8.68;1.70;;;11.00;99.90;;;;;;5035660;28;20038;-81
2024/04/03 06:04:30;;;;;;;6.60;1.85;;;11.00;99.90;;;;;;5034857;28;20112;-80
2024/04/03 06:06:57;;;;;;;6.10;1.70;;;11.00;99.90;;;;;;5035109;28;20495;-80
2024/04/03 06:09:22;;;;;;;4.90;1.48;;;11.00;99.90;;;;;;5036105;28;20014;-84
2024/04/03 06:11:48;;;;;;;8.80;1.60;;;11.10;99.90;;;;;;5036050;28;20025;-82
2024/04/03 06:14:13;;;;;;;8.73;1.88;;;11.10;99.90;;;;;;5035181;28;20018;-81
2024/04/03 06:16:39;;;;;;;6.80;1.55;;;11.10;99.90;;;;;;5036452;28;20076;-83
2024/04/03 06:19:09;;;;;;;6.00;1.75;;;11.10;99.90;;;;;;5036038;28;20033;-82
2024/04/03 06:21:35;;;;;;;6.97;2.08;;;11.00;99.90;;;;;;5035257;28;20485;-81
2024/04/03 06:24:03;;;;;;;5.80;2.08;;;11.10;99.90;;;;;;5036460;28;20032;-82
2024/04/03 06:26:28;;;;;;;7.07;2.30;;;11.10;99.90;;;;;;5031512;28;20021;-83
2024/04/03 06:28:54;;;;;;;9.82;2.70;;;11.10;99.90;;;;;;5038151;28;20334;-84
2024/04/03 06:31:20;;;;;;;13.10;2.53;;;11.10;99.90;;;;;;5035853;28;20084;-84
2024/04/03 06:33:50;;;;;;;8.50;2.05;;;11.10;99.90;;;;;;5034858;28;20029;-82
2024/04/03 06:36:17;;;;;;;11.45;2.90;;;11.10;99.90;;;;;;5034590;28;20052;-83
2024/04/03 06:38:44;;;;;;;7.80;2.08;;;11.10;99.90;;;;;;5036008;28;20029;-83
2024/04/03 06:41:09;;;;;;;8.43;2.33;;;11.20;99.90;;;;;;5034185;28;20033;-84
2024/04/03 06:43:35;;;;;;;8.75;2.55;;;11.20;99.90;;;;;;5034456;28;20071;-83
2024/04/03 06:46:01;;;;;;;9.68;2.28;;;11.30;99.90;;;;;;5035610;28;20009;-82
2024/04/03 06:48:26;;;;;;;4.85;1.80;;;11.20;99.90;;;;;;5034438;28;20055;-82
2024/04/03 06:50:53;;;;;;;6.72;3.10;;;11.30;99.90;;;;;;5034266;28;20117;-83
2024/04/03 06:53:20;;;;;;;5.88;2.05;;;11.30;99.90;;;;;;5033612;28;20057;-83
2024/04/03 06:55:59;;;;;;;6.97;2.88;;;11.40;99.90;;;;;;5035607;28;20018;-84
2024/04/03 06:58:27;;;;;;;10.18;2.42;;;11.30;99.90;;;;;;5032995;28;20025;-83
2024/04/03 07:00:52;;;;;;;9.38;2.55;;;11.30;99.90;;;;;;5030157;28;20061;-85
2024/04/03 07:03:18;;;;;;;9.98;2.17;;;11.40;99.90;;;;;;5030449;28;20060;-84
2024/04/03 07:05:44;;;;;;;8.02;2.17;;;11.40;99.90;;;;;;5033230;28;20029;-78
2024/04/03 07:08:13;;;;;;;7.35;2.10;;;11.40;99.90;;;;;;5034637;28;20067;-79
2024/04/03 07:10:40;;;;;;;5.53;2.28;;;11.40;99.90;;;;;;5030401;28;20047;-79
2024/04/03 07:13:05;;;;;;;6.57;1.80;;;11.50;99.90;;;;;;5033651;28;20087;-79
2024/04/03 07:15:34;;;;;;;7.90;1.50;;;11.50;99.90;;;;;;5035181;28;20125;-80
2024/04/03 07:18:00;;;;;;;5.60;1.65;;;11.50;99.90;;;;;;5035099;28;20497;-79
2024/04/03 07:20:29;;;;;;;5.40;1.52;;;11.50;99.90;;;;;;5034650;28;20021;-79
2024/04/03 07:22:59;;;;;;;5.38;1.58;;;11.50;99.90;;;;;;5030415;28;20112;-79
2024/04/03 07:25:25;;;;;;;5.63;1.50;;;11.50;99.90;;;;;;5034645;28;20493;-79
2024/04/03 07:27:52;;;;;;;8.93;1.83;;;11.50;99.90;;;;;;5033491;28;20040;-80
2024/04/03 07:30:18;;;;;;;7.97;1.63;;;11.50;99.90;;;;;;5030268;28;20063;-80
2024/04/03 07:32:44;;;;;;;7.15;1.50;;;11.60;99.90;;;;;;5032031;28;20471;-80
2024/04/03 07:35:10;;;;;;;4.18;1.40;;;11.60;99.90;;;;;;5034553;28;20034;-79
2024/04/03 07:37:41;;;;;;;6.55;1.95;;;11.70;99.90;;;;;;5034787;28;20027;-79
2024/04/03 07:40:11;;;;;;;7.50;1.63;;;11.70;99.90;;;;;;5034863;28;20060;-79
2024/04/03 07:42:38;;;;;;;6.82;1.40;;;11.70;99.90;;;;;;5033396;28;20202;-79
2024/04/03 07:45:04;;;;;;;7.78;1.70;;;11.70;99.90;;;;;;5032996;28;20024;-79
2024/04/03 07:47:33;;;;;;;9.80;1.83;;;11.80;99.90;;;;;;5034023;28;20029;-79
2024/04/03 07:50:08;;;;;;;6.75;1.35;;;11.70;99.90;;;;;;5033809;28;20136;-79
2024/04/03 07:52:37;;;;;;;4.32;1.30;;;11.70;99.90;;;;;;5034221;28;20079;-80
2024/04/03 07:55:11;;;;;;;6.45;1.52;;;11.70;99.90;;;;;;5030871;28;20033;-79
2024/04/03 07:57:37;;;;;;;6.78;1.35;;;11.70;99.90;;;;;;5034050;28;20030;-79
2024/04/03 08:00:05;;;;;;;8.95;1.52;;;11.80;99.90;;;;;;5033904;28;20095;-79
2024/04/03 08:02:41;;;;;;;6.00;1.67;;;11.80;99.90;;;;;;5033694;28;20035;-79
2024/04/03 08:05:08;;;;;;;6.72;1.52;;;11.80;99.90;;;;;;5030792;28;20138;-80
2024/04/03 08:07:34;;;;;;;4.68;1.60;;;11.80;99.90;;;;;;5034108;28;20034;-80
2024/04/03 08:10:04;;;;;;;6.55;1.63;;;11.90;99.90;;;;;;5034242;28;20486;-80
2024/04/03 08:12:30;;;;;;;7.90;2.17;;;11.90;99.90;;;;;;5031140;28;20045;-80
2024/04/03 08:14:58;;;;;;;6.43;1.90;;;12.00;99.90;;;;;;5029558;28;20029;-80
2024/04/03 08:17:24;;;;;;;5.00;1.50;;;12.00;99.90;;;;;;5033482;28;20056;-80
2024/04/03 08:19:54;;;;;;;4.00;1.45;;;12.00;99.90;;;;;;5033605;28;20029;-80
2024/04/03 08:22:20;;;;;;;5.10;1.27;;;12.00;99.90;;;;;;5046047;28;20014;-79
2024/04/03 08:24:46;;;;;;;5.40;1.27;;;12.00;99.90;;;;;;5032652;28;20025;-79
2024/04/03 08:27:13;;;;;;;6.50;1.83;;;12.00;99.90;;;;;;5033466;28;20497;-79
2024/04/03 08:29:42;;;;;;;7.25;2.13;;;12.00;99.90;;;;;;5033315;28;20131;-79
2024/04/03 08:32:11;;;;;;;8.10;1.75;;;11.90;99.90;;;;;;5032530;28;20029;-79
2024/04/03 08:34:37;;;;;;;5.72;1.45;;;11.90;99.90;;;;;;5032345;28;20535;-80
2024/04/03 08:37:04;;;;;;;6.18;1.65;;;11.80;99.90;;;;;;5033516;28;20018;-79
2024/04/03 08:39:30;;;;;;;7.95;1.90;;;11.80;99.90;;;;;;5033680;28;20027;-79
2024/04/03 08:41:58;;;;;;;8.95;1.83;;;11.80;99.90;;;;;;5032500;28;20417;-79
2024/04/03 08:44:28;;;;;;;12.07;3.35;;;11.80;99.90;;;;;;5033337;28;20029;-78
2024/04/03 08:46:55;;;;;;;6.93;2.38;;;11.80;99.90;;;;;;5033372;28;20032;-79
2024/04/03 08:49:23;;;;;;;5.40;1.98;;;11.90;99.90;;;;;;5031771;28;20033;-79
2024/04/03 08:52:16;;;;;;;5.03;1.67;;;11.80;99.90;;;;;;5033542;28;20033;-79
2024/04/03 08:54:43;;;;;;;5.38;1.23;;;11.90;99.90;;;;;;5028976;28;20107;-79
2024/04/03 08:57:09;;;;;;;5.13;1.20;;;11.90;99.90;;;;;;5033039;28;20036;-79
2024/04/03 08:59:38;;;;;;;4.95;1.35;;;11.90;99.90;;;;;;5032964;28;20017;-80
2024/04/03 09:02:04;;;;;;;8.80;1.58;;;11.90;99.90;;;;;;5033341;28;20224;-79
2024/04/03 09:04:32;;;;;;;7.47;1.42;;;11.90;99.90;;;;;;5033227;28;20473;-79
2024/04/03 09:06:57;;;;;;;7.80;1.80;;;11.90;99.90;;;;;;5033177;28;20026;-79
2024/04/03 09:09:28;;;;;;;6.40;1.30;;;11.90;99.90;;;;;;5031575;28;20022;-79
2024/04/03 09:12:05;;;;;;;4.63;1.35;;;11.90;99.90;;;;;;5031423;28;20192;-79
2024/04/03 09:14:31;;;;;;;4.88;1.13;;;12.00;99.90;;;;;;5032908;28;20116;-79
2024/04/03 09:17:04;;;;;;;5.78;2.03;;;12.00;99.90;;;;;;5032946;28;20281;-79
2024/04/03 09:19:31;;;;;;;5.75;1.52;;;12.00;99.90;;;;;;5031853;28;20048;-79
2024/04/03 09:22:01;;;;;;;6.45;1.35;;;12.00;99.90;;;;;;5032971;28;20111;-79
2024/04/03 09:24:31;;;;;;;4.03;1.10;;;12.00;99.90;;;;;;5032856;28;20290;-79
2024/04/03 09:26:58;;;;;;;6.30;1.52;;;12.00;99.90;;;;;;5031750;28;20018;-80
2024/04/03 09:29:24;;;;;;;5.90;1.50;;;12.00;99.90;;;;;;5032812;28;20028;-79
2024/04/03 09:31:50;;;;;;;5.05;1.25;;;12.00;99.90;;;;;;5032867;28;20385;-79
2024/04/03 09:34:16;;;;;;;4.22;1.20;;;12.00;99.90;;;;;;5030720;28;20033;-79
2024/04/03 09:36:42;;;;;;;5.65;1.05;;;12.00;99.90;;;;;;5031717;28;20029;-79
2024/04/03 09:39:11;;;;;;;6.20;1.35;;;12.00;99.90;;;;;;5031738;28;20022;-79
2024/04/03 09:41:40;;;;;;;3.30;0.98;;;12.00;99.90;;;;;;5029507;28;20091;-80
2024/04/03 09:44:08;;;;;;;5.05;1.00;;;12.00;99.90;;;;;;5030962;28;20049;-79
2024/04/03 09:46:59;;;;;;;5.22;1.45;;;12.00;99.90;;;;;;5029263;28;20025;-79
2024/04/03 09:49:27;;;;;;;8.48;1.13;;;12.00;99.90;;;;;;5030475;28;20025;-79
2024/04/03 09:51:55;;;;;;;4.82;0.90;;;12.10;99.90;;;;;;5032092;28;20104;-80
2024/04/03 09:54:22;;;;;;;5.15;0.98;;;12.10;99.90;;;;;;5029950;28;20037;-80
2024/04/03 09:56:48;;;;;;;5.20;1.27;;;12.10;99.90;;;;;;5032522;28;20036;-80
2024/04/03 09:59:16;;;;;;;4.95;1.10;;;12.10;99.90;;;;;;5031123;28;20068;-79
2024/04/03 10:01:42;;;;;;;4.07;0.95;;;12.10;99.90;;;;;;5032527;28;20044;-80
2024/04/03 10:04:09;;;;;;;4.05;1.10;;;12.20;99.90;;;;;;5032412;28;20026;-80
2024/04/03 10:06:36;;;;;;;4.13;0.77;;;12.20;99.90;;;;;;5032534;28;20106;-80
2024/04/03 10:09:23;;;;;;;3.72;0.90;;;12.20;99.90;;;;;;5030758;28;20029;-81
2024/04/03 10:11:54;;;;;;;2.88;1.00;;;12.20;99.90;;;;;;5031805;28;20025;-80
2024/04/03 10:14:26;;;;;;;4.32;1.05;;;12.30;99.90;;;;;;5032150;28;20037;-79
2024/04/03 10:16:53;;;;;;;3.67;1.10;;;12.30;99.90;;;;;;5032482;28;20041;-80
2024/04/03 10:19:24;;;;;;;4.47;1.27;;;12.40;99.90;;;;;;5031332;28;20040;-80
2024/04/03 10:21:50;;;;;;;6.13;0.93;;;12.40;99.90;;;;;;5030936;28;20026;-80
2024/04/03 10:24:19;;;;;;;2.75;0.90;;;12.60;99.90;;;;;;5031888;28;20030;-79
2024/04/03 10:26:46;;;;;;;4.63;1.15;;;12.80;99.90;;;;;;5032107;28;20424;-80
2024/04/03 10:29:12;;;;;;;2.95;1.20;;;13.00;99.90;;;;;;5031020;28;20025;-80
2024/04/03 10:31:37;;;;;;;5.32;0.80;;;13.20;99.90;;;;;;5030844;28;20409;-79
2024/04/03 10:34:03;;;;;;;3.75;1.15;;;13.30;99.90;;;;;;5031722;28;20036;-79
2024/04/03 10:36:29;;;;;;;3.85;1.00;;;13.40;99.90;;;;;;5030387;28;20014;-80
2024/04/03 10:38:54;;;;;;;3.53;0.80;;;13.40;99.90;;;;;;5025969;28;20553;-80
2024/04/03 10:41:20;;;;;;;3.55;1.00;;;13.40;99.90;;;;;;5030605;28;20053;-79
2024/04/03 10:43:46;;;;;;;4.57;0.85;;;13.50;99.90;;;;;;5032223;28;20363;-80
2024/04/03 10:46:21;;;;;;;3.80;0.80;;;13.50;99.90;;;;;;5034631;28;20026;-80
2024/04/03 10:48:47;;;;;;;2.13;0.82;;;13.60;99.90;;;;;;5034532;28;20037;-79
2024/04/03 10:51:13;;;;;;;2.88;0.90;;;13.60;99.90;;;;;;5035548;28;20041;-81
2024/04/03 10:53:39;;;;;;;3.72;1.10;;;13.60;99.90;;;;;;5034358;28;20083;-80
2024/04/03 10:56:05;;;;;;;3.75;1.02;;;13.60;99.90;;;;;;5035064;28;20029;-80
2024/04/03 10:58:30;;;;;;;3.17;1.08;;;13.60;99.90;;;;;;5035470;28;20025;-79
2024/04/03 11:00:57;;;;;;;3.40;0.80;;;13.70;99.90;;;;;;5035500;28;20091;-80
2024/04/03 11:03:23;;;;;;;3.90;1.25;;;13.70;99.90;;;;;;5034387;28;20021;-82
2024/04/03 11:05:50;;;;;;;3.00;1.10;;;13.70;99.90;;;;;;5034736;28;20018;-81
2024/04/03 11:08:16;;;;;;;3.92;0.98;;;13.60;99.90;;;;;;5033691;28;20018;-80
2024/04/03 11:10:41;;;;;;;2.83;0.90;;;13.60;99.90;;;;;;5035395;28;20025;-81
2024/04/03 11:13:14;;;;;;;2.83;0.90;;;13.60;99.90;;;;;;5034281;28;20025;-81
2024/04/03 11:15:40;;;;;;;4.22;1.10;;;13.60;99.90;;;;;;5035539;28;20532;-81
2024/04/03 11:18:06;;;;;;;2.60;0.65;;;13.60;99.90;;;;;;5034213;28;20021;-81
2024/04/03 11:20:34;;;;;;;2.28;0.70;;;13.60;99.90;;;;;;5035221;28;20458;-81
2024/04/03 11:23:00;;;;;;;3.17;0.90;;;13.60;99.90;;;;;;5035729;28;20124;-81
2024/04/03 11:25:26;;;;;;;2.25;0.70;;;13.70;99.90;;;;;;5035393;28;20017;-81
2024/04/03 11:28:00;;;;;;;2.65;0.60;;;13.70;99.90;;;;;;5035133;28;20033;-81
2024/04/03 11:30:26;;;;;;;2.40;0.70;;;13.70;99.90;;;;;;5035251;28;20052;-80
2024/04/03 11:32:51;;;;;;;4.43;0.70;;;13.70;99.90;;;;;;5035081;28;20025;-81
2024/04/03 11:35:17;;;;;;;2.05;0.60;;;13.70;99.90;;;;;;5034824;28;20101;-81
2024/04/03 11:37:42;;;;;;;1.85;0.70;;;13.80;99.90;;;;;;5034917;28;20022;-81
2024/04/03 11:40:08;;;;;;;3.00;0.73;;;13.80;99.90;;;;;;5033148;28;20096;-81
2024/04/03 11:42:35;;;;;;;2.95;0.60;;;13.80;99.90;;;;;;5033770;28;20048;-81
2024/04/03 11:45:01;;;;;;;2.15;0.60;;;13.80;99.90;;;;;;5035202;28;20513;-81
2024/04/03 11:47:27;;;;;;;4.07;0.73;;;13.80;99.90;;;;;;5033707;28;20025;-81
2024/04/03 11:49:53;;;;;;;3.15;0.73;;;13.80;99.90;;;;;;5034489;28;20386;-81
2024/04/03 11:52:18;;;;;;;1.85;0.68;;;13.80;99.90;;;;;;5034741;28;20018;-81
2024/04/03 11:54:44;;;;;;;1.50;0.60;;;13.80;99.90;;;;;;5034108;28;20501;-81
2024/04/03 11:57:10;;;;;;;6.18;0.93;;;13.80;99.90;;;;;;5033562;28;20029;-81
2024/04/03 11:59:37;;;;;;;2.63;0.75;;;13.80;99.90;;;;;;5034695;28;20049;-81
2024/04/03 12:02:04;;;;;;;2.00;0.60;;;13.70;99.90;;;;;;5034481;28;20048;-80
2024/04/03 12:04:29;;;;;;;2.15;0.60;;;13.80;99.90;;;;;;5034598;28;20029;-81
2024/04/03 12:06:55;;;;;;;1.10;0.60;;;13.80;99.90;;;;;;5033376;28;20020;-81
2024/04/03 12:09:20;;;;;;;1.98;0.70;;;13.80;99.90;;;;;;5033822;28;20101;-81
2024/04/03 12:11:47;;;;;;;3.25;0.77;;;13.70;99.90;;;;;;5034338;28;20049;-81
2024/04/03 12:14:13;;;;;;;4.65;1.05;;;13.70;99.90;;;;;;5034016;28;20108;-81
2024/04/03 12:16:39;;;;;;;1.67;0.57;;;13.70;99.90;;;;;;5034409;28;20049;-81
2024/04/03 12:19:16;;;;;;;2.08;0.82;;;13.70;99.90;;;;;;5034183;28;20040;-81
2024/04/03 12:21:42;;;;;;;1.85;0.70;;;13.80;99.90;;;;;;5033889;28;20017;-81
2024/04/03 12:24:09;;;;;;;0.80;0.50;;;13.80;99.90;;;;;;5034711;28;20029;-81
2024/04/03 12:26:35;;;;;;;1.20;0.50;;;13.80;99.90;;;;;;5032924;28;20104;-81
2024/04/03 12:29:00;;;;;;;1.40;0.60;;;13.80;99.90;;;;;;5032786;28;20037;-81
2024/04/03 12:31:27;;;;;;;1.70;0.70;;;13.80;99.90;;;;;;5033828;28;20550;-81
2024/04/03 12:33:53;;;;;;;3.67;0.80;;;13.80;99.90;;;;;;5033770;28;20088;-81
2024/04/03 12:36:19;;;;;;;3.33;0.70;;;13.70;99.90;;;;;;5033923;28;20474;-81
2024/04/03 12:38:47;;;;;;;1.77;0.60;;;13.90;99.90;;;;;;5034074;28;20065;-80
2024/04/03 12:41:13;;;;;;;1.70;0.60;;;13.90;99.90;;;;;;5033433;28;20075;-81
2024/04/03 12:43:39;;;;;;;2.25;0.70;;;13.90;99.90;;;;;;5033756;28;20027;-81
2024/04/03 12:46:05;;;;;;;2.60;0.77;;;13.90;99.90;;;;;;5033503;28;20533;-81
2024/04/03 12:48:30;;;;;;;2.17;0.55;;;14.00;99.90;;;;;;5033533;28;20029;-81